Time;durP1;ratioP1;P1;durP2;ratioP2;P2;SDS_P1;SDS_P2;PMS_P1;PMS_P2;Temp;Humidity;BMP_temperature;BMP_pressure;BME280_temperature;BME280_humidity;BME280_pressure;Samples;Min_cycle;Max_cycle;Signal;HPM_P1;HPM_P2
2022/03/16 05:32:25;;;;;;;;;31.25;26.25;;;;;12.61;69.82;101557.38;5037017;27;45500;-74
2022/03/16 05:34:50;;;;;;;;;29.00;26.50;;;;;12.55;69.93;101546.88;5034118;28;45438;-74
2022/03/16 05:37:16;;;;;;;;;31.75;27.75;;;;;12.55;70.06;101559.44;5034246;28;45339;-74
2022/03/16 05:39:41;;;;;;;;;28.50;23.50;;;;;12.55;70.07;101567.50;5053053;28;45550;-74
2022/03/16 05:42:08;;;;;;;;;31.25;27.00;;;;;12.48;70.15;101558.81;5053909;28;46230;-73
2022/03/16 05:44:33;;;;;;;;;25.50;21.75;;;;;12.41;70.60;101552.81;5053557;28;45440;-75
2022/03/16 05:46:58;;;;;;;;;27.50;25.75;;;;;12.38;70.18;101546.69;5053995;28;45990;-74
2022/03/16 05:49:25;;;;;;;;;29.75;28.25;;;;;12.43;70.08;101559.00;5053176;28;45307;-73
2022/03/16 05:51:51;;;;;;;;;27.00;25.50;;;;;12.43;70.56;101559.00;5053460;28;46265;-73
2022/03/16 05:54:16;;;;;;;;;31.00;26.50;;;;;12.45;70.41;101561.63;5053528;28;45323;-74
2022/03/16 05:56:42;;;;;;;;;27.00;26.50;;;;;12.38;70.49;101552.94;5053787;28;45215;-74
2022/03/16 05:59:07;;;;;;;;;33.25;28.75;;;;;12.37;70.65;101547.63;5053615;28;45662;-74
2022/03/16 06:01:32;;;;;;;;;29.00;26.00;;;;;12.44;70.26;101563.44;5054917;28;45603;-74
2022/03/16 06:03:58;;;;;;;;;24.75;24.75;;;;;12.43;70.56;101553.63;5056982;28;45370;-75
2022/03/16 06:06:23;;;;;;;;;29.00;27.75;;;;;12.36;70.73;101543.19;5057016;28;45326;-74
2022/03/16 06:08:49;;;;;;;;;28.50;25.75;;;;;12.47;70.86;101566.00;5060331;28;45211;-71
2022/03/16 06:11:14;;;;;;;;;30.00;27.00;;;;;12.41;70.90;101552.81;5059016;28;45278;-77
2022/03/16 06:13:39;;;;;;;;;24.50;24.50;;;;;12.48;70.86;101569.59;5057965;28;45400;-75
2022/03/16 06:16:05;;;;;;;;;30.00;25.75;;;;;12.44;70.75;101567.94;5058349;28;45307;-76
2022/03/16 06:18:30;;;;;;;;;36.00;27.00;;;;;12.48;70.62;101566.91;5057894;28;45530;-76
2022/03/16 06:20:56;;;;;;;;;29.00;25.50;;;;;12.45;70.70;101542.81;5057872;28;45242;-76
2022/03/16 06:23:21;;;;;;;;;29.50;24.50;;;;;12.50;70.29;101552.41;5057147;28;45352;-73
2022/03/16 06:25:46;;;;;;;;;32.25;27.75;;;;;12.52;70.00;101557.75;5057605;28;45845;-77
2022/03/16 06:28:12;;;;;;;;;30.75;27.25;;;;;12.52;70.52;101565.81;5058897;28;45315;-78
2022/03/16 06:30:37;;;;;;;;;32.50;25.75;;;;;12.25;70.32;101532.84;5058428;28;45568;-81
2022/03/16 06:33:06;;;;;;;;;30.50;29.75;;;;;12.41;70.47;101566.28;5057584;28;45479;-88
2022/03/16 06:35:32;;;;;;;;;26.75;24.75;;;;;12.49;70.15;101582.97;5056906;28;45331;-80
2022/03/16 06:37:58;;;;;;;;;32.50;23.25;;;;;12.41;70.52;101576.16;5056370;28;45453;-80
2022/03/16 06:40:23;;;;;;;;;28.25;27.25;;;;;12.48;70.71;101581.22;5056501;28;46690;-73
2022/03/16 06:42:56;;;;;;;;;28.00;25.75;;;;;12.44;70.40;101576.88;5056844;28;45469;-78
2022/03/16 06:45:22;;;;;;;;;32.75;27.25;;;;;12.48;70.45;101593.78;5057367;28;45509;-73
2022/03/16 06:47:48;;;;;;;;;30.25;27.75;;;;;12.43;70.29;101590.38;5055836;28;45489;-71
2022/03/16 06:50:14;;;;;;;;;29.75;26.00;;;;;12.42;70.22;101594.88;5055890;28;46286;-73
2022/03/16 06:52:40;;;;;;;;;33.00;29.25;;;;;12.35;70.51;101595.19;5056586;28;45532;-79
2022/03/16 06:55:07;;;;;;;;;27.75;25.50;;;;;12.41;70.43;101603.03;5056458;28;45316;-80
2022/03/16 06:57:32;;;;;;;;;32.00;30.25;;;;;12.42;70.34;101608.34;5056155;28;45535;-75
2022/03/16 06:59:58;;;;;;;;;28.50;26.75;;;;;12.31;70.92;101593.59;5056544;28;46185;-81
2022/03/16 07:02:23;;;;;;;;;30.50;29.00;;;;;12.34;70.70;101597.00;5055269;28;45806;-77
2022/03/16 07:04:48;;;;;;;;;32.00;28.75;;;;;12.26;70.53;101574.94;5056132;28;45377;-77
2022/03/16 07:07:14;;;;;;;;;26.75;26.25;;;;;12.29;70.79;101576.63;5053498;28;45429;-78
2022/03/16 07:09:39;;;;;;;;;30.75;26.00;;;;;12.41;70.42;101595.84;5056186;28;45494;-78
2022/03/16 07:12:05;;;;;;;;;32.00;28.00;;;;;12.43;70.19;101587.69;5055295;28;45456;-76
2022/03/16 07:14:30;;;;;;;;;28.50;26.25;;;;;12.52;70.57;101595.41;5055636;28;45331;-77
2022/03/16 07:16:56;;;;;;;;;35.00;27.25;;;;;12.50;70.06;101603.53;5055648;28;45458;-77
2022/03/16 07:19:22;;;;;;;;;27.00;24.00;;;;;12.50;70.13;101591.91;5055543;28;45509;-78
2022/03/16 07:21:47;;;;;;;;;27.75;25.00;;;;;12.50;70.05;101595.47;5055823;28;45269;-77
2022/03/16 07:24:12;;;;;;;;;28.50;27.00;;;;;12.51;70.28;101599.03;5055914;28;45696;-79
2022/03/16 07:26:39;;;;;;;;;32.50;29.00;;;;;12.48;69.63;101594.66;5055517;28;45222;-77
2022/03/16 07:29:05;;;;;;;;;27.75;25.00;;;;;12.50;69.77;101602.69;5056857;28;46344;-79
2022/03/16 07:31:30;;;;;;;;;31.00;30.00;;;;;12.51;70.05;101601.72;5057047;28;45239;-78
2022/03/16 07:33:55;;;;;;;;;30.75;28.00;;;;;12.49;70.14;101604.50;5055681;28;45220;-78
2022/03/16 07:36:21;;;;;;;;;33.00;31.00;;;;;12.48;69.62;101596.47;5055119;28;45277;-78
2022/03/16 07:38:47;;;;;;;;;33.50;31.00;;;;;12.49;69.56;101604.50;5055179;28;47133;-77
2022/03/16 07:41:14;;;;;;;;;35.00;29.50;;;;;12.52;70.00;101609.72;5055234;28;45457;-76
2022/03/16 07:43:40;;;;;;;;;30.75;30.00;;;;;12.51;69.79;101599.03;5055678;28;45389;-78
2022/03/16 07:46:05;;;;;;;;;32.25;29.50;;;;;12.50;70.05;101603.53;5038337;28;45269;-78
2022/03/16 07:48:30;;;;;;;;;29.00;26.25;;;;;12.52;69.58;101609.72;5055156;28;46151;-78
2022/03/16 07:50:56;;;;;;;;;31.25;29.50;;;;;12.52;69.58;101601.66;5055097;28;45432;-77
2022/03/16 07:53:21;;;;;;;;;31.25;26.25;;;;;12.42;69.92;101588.63;5055705;28;45631;-77
2022/03/16 07:55:48;;;;;;;;;38.00;33.00;;;;;12.48;70.22;101597.34;5055062;28;45344;-77
2022/03/16 07:58:14;;;;;;;;;35.75;31.25;;;;;12.59;70.39;101606.81;5055357;28;46226;-76
2022/03/16 08:00:39;;;;;;;;;31.00;25.00;;;;;12.62;69.93;101602.16;5054977;28;45216;-78
2022/03/16 08:03:05;;;;;;;;;39.25;27.00;;;;;12.62;69.54;101598.59;5033571;28;45317;-77
2022/03/16 08:05:31;;;;;;;;;30.00;26.75;;;;;12.65;69.33;101604.75;5041678;28;45205;-77
2022/03/16 08:07:56;;;;;;;;;35.00;31.75;;;;;12.69;69.42;101610.84;5054931;28;46420;-77
2022/03/16 08:10:22;;;;;;;;;34.75;30.50;;;;;12.70;68.99;101600.03;5054964;28;45318;-77
2022/03/16 08:12:48;;;;;;;;;28.75;26.25;;;;;12.73;69.10;101599.03;5033610;28;45261;-77
2022/03/16 08:15:13;;;;;;;;;38.50;33.50;;;;;12.57;68.88;101555.75;5050076;28;45481;-78
2022/03/16 08:17:40;;;;;;;;;29.25;25.50;;;;;12.76;68.76;101586.31;5054690;28;46111;-78
2022/03/16 08:20:05;;;;;;;;;31.25;28.50;;;;;12.72;68.62;101581.16;5054574;28;45572;-78
2022/03/16 08:22:33;;;;;;;;;32.25;31.50;;;;;12.83;69.12;101586.97;5055136;28;45295;-76
2022/03/16 08:25:02;;;;;;;;;28.50;25.75;;;;;12.84;68.52;101588.72;5054452;28;45394;-76
2022/03/16 08:27:28;;;;;;;;;30.00;28.25;;;;;12.84;68.51;101586.03;5054825;28;45635;-77
2022/03/16 08:29:54;;;;;;;;;36.25;27.75;;;;;12.79;68.34;101574.56;5054544;28;45378;-76
2022/03/16 08:32:21;;;;;;;;;32.75;27.75;;;;;12.86;67.96;101587.69;5054792;28;45374;-77
2022/03/16 08:34:47;;;;;;;;;35.50;30.00;;;;;12.86;68.27;101587.69;5054276;28;45458;-77
2022/03/16 08:37:12;;;;;;;;;33.50;27.50;;;;;12.87;68.40;101596.66;5054622;28;46203;-78
2022/03/16 08:39:38;;;;;;;;;33.50;30.75;;;;;12.87;67.92;101591.25;5054276;28;45486;-77
2022/03/16 08:42:05;;;;;;;;;32.75;26.50;;;;;12.76;67.73;101585.47;5054507;28;45349;-77
2022/03/16 08:44:31;;;;;;;;;35.25;29.75;;;;;12.80;67.89;101597.84;5055419;28;45544;-78
2022/03/16 08:46:58;;;;;;;;;30.00;28.50;;;;;12.68;68.13;101588.44;5054459;28;46034;-77
2022/03/16 08:49:23;;;;;;;;;31.50;30.25;;;;;12.78;68.22;101610.47;5054098;28;45519;-78
2022/03/16 08:51:48;;;;;;;;;26.50;25.25;;;;;12.72;68.51;101595.47;5054881;28;45824;-76
2022/03/16 08:54:14;;;;;;;;;29.25;27.25;;;;;12.73;67.89;101596.34;5054241;28;45750;-77
2022/03/16 08:56:39;;;;;;;;;35.50;28.75;;;;;12.76;68.07;101604.31;5054357;28;45505;-77
2022/03/16 08:59:06;;;;;;;;;32.00;31.50;;;;;12.65;67.88;101593.09;5054303;28;45308;-78
2022/03/16 09:01:31;;;;;;;;;31.50;30.25;;;;;12.73;67.89;101617.88;5054566;28;45395;-78
2022/03/16 09:03:57;;;;;;;;;36.75;33.00;;;;;12.68;68.37;101618.06;5053712;28;45587;-77
2022/03/16 09:06:22;;;;;;;;;33.00;28.75;;;;;12.72;68.23;101624.19;5054364;28;45252;-78
2022/03/16 09:08:48;;;;;;;;;35.50;31.75;;;;;12.75;68.08;101632.16;5054006;28;45227;-76
2022/03/16 09:11:13;;;;;;;;;35.25;31.00;;;;;12.74;68.20;101625.00;5054533;28;45397;-77
2022/03/16 09:13:39;;;;;;;;;33.50;31.75;;;;;12.77;67.78;101625.75;5054139;28;45385;-78
2022/03/16 09:16:05;;;;;;;;;35.50;30.25;;;;;12.82;67.91;101622.88;5046334;28;45184;-78
2022/03/16 09:18:31;;;;;;;;;31.25;29.50;;;;;12.79;67.98;101620.31;5053852;28;45908;-79
2022/03/16 09:20:57;;;;;;;;;32.25;28.00;;;;;12.79;68.08;101612.22;5054795;28;45345;-78
2022/03/16 09:23:22;;;;;;;;;32.25;27.50;;;;;12.82;67.97;101612.13;5054560;28;45535;-77
2022/03/16 09:25:48;;;;;;;;;32.00;28.75;;;;;12.83;67.95;101608.50;5053951;28;45839;-78
2022/03/16 09:28:13;;;;;;;;;31.50;29.25;;;;;12.84;67.77;101604.88;5035642;28;45378;-78
2022/03/16 09:30:38;;;;;;;;;34.25;31.75;;;;;12.72;67.71;101590.09;5054066;28;45309;-77
2022/03/16 09:33:05;;;;;;;;;38.25;29.75;;;;;12.93;67.83;101623.28;5053605;28;45489;-77
2022/03/16 09:35:33;;;;;;;;;30.00;30.00;;;;;12.96;67.51;101619.59;5054130;28;46130;-79
2022/03/16 09:37:58;;;;;;;;;35.25;32.25;;;;;12.86;67.88;101601.16;5058630;28;45480;-78
2022/03/16 09:40:24;;;;;;;;;35.00;30.00;;;;;13.00;67.41;101623.94;5058821;28;45200;-78
2022/03/16 09:42:52;;;;;;;;;32.25;26.75;;;;;13.03;67.39;101619.28;5060349;28;45444;-79
2022/03/16 09:45:20;;;;;;;;;29.75;28.75;;;;;13.09;67.41;101618.16;5060077;28;47671;-77
2022/03/16 09:47:47;;;;;;;;;32.00;28.75;;;;;13.14;67.19;101618.88;5062220;28;45356;-77
2022/03/16 09:50:12;;;;;;;;;29.25;28.25;;;;;13.18;67.28;101617.81;5063610;28;45329;-76
2022/03/16 09:52:40;;;;;;;;;32.50;29.00;;;;;13.15;66.76;101599.97;5060725;28;45366;-77
2022/03/16 09:55:06;;;;;;;;;35.75;30.25;;;;;13.24;66.33;101604.06;5059963;28;45174;-78
2022/03/16 09:57:32;;;;;;;;;34.25;32.25;;;;;13.27;66.48;101599.41;5057648;28;45561;-77
2022/03/16 09:59:58;;;;;;;;;36.75;32.00;;;;;13.29;66.68;101596.66;5036185;28;45435;-77
2022/03/16 10:02:26;;;;;;;;;34.75;29.50;;;;;13.34;66.39;101588.41;5053606;28;45553;-78
2022/03/16 10:04:53;;;;;;;;;36.75;32.25;;;;;13.39;66.16;101589.94;5036127;28;46995;-78
2022/03/16 10:07:26;;;;;;;;;32.75;31.50;;;;;13.46;65.98;101601.31;5035798;28;45406;-78
2022/03/16 10:15:21;;;;;;;;;31.25;28.50;;;;;13.47;65.66;101585.09;5056751;28;45875;-77
2022/03/16 10:17:49;;;;;;;;;35.25;32.00;;;;;13.49;65.88;101577.81;5056969;28;45460;-76
2022/03/16 10:20:19;;;;;;;;;32.00;30.50;;;;;13.53;65.58;101576.72;5056685;28;45857;-78
2022/03/16 10:22:52;;;;;;;;;23.25;23.25;;;;;13.66;65.25;101584.25;5056934;28;46107;-77
2022/03/16 10:25:18;;;;;;;;;36.00;32.75;;;;;13.70;65.33;101586.72;5056608;28;45448;-77
2022/03/16 10:27:43;;;;;;;;;31.75;31.50;;;;;13.64;65.03;101565.47;5056742;28;45417;-77
2022/03/16 10:30:09;;;;;;;;;33.75;29.75;;;;;13.85;64.95;101593.28;5056628;28;45287;-77
2022/03/16 10:32:35;;;;;;;;;33.25;31.75;;;;;13.81;64.61;101579.03;5056358;28;45501;-76
2022/03/16 10:35:05;;;;;;;;;34.50;33.00;;;;;13.96;64.72;101591.81;5056065;28;45449;-78
2022/03/16 10:37:33;;;;;;;;;41.75;33.00;;;;;14.04;64.25;101586.06;5056693;28;45321;-79
2022/03/16 10:39:58;;;;;;;;;38.50;32.00;;;;;14.00;64.21;101568.28;5056707;28;45274;-77
2022/03/16 10:48:14;;;;;;;;;31.50;30.75;;;;;14.29;63.90;101583.09;5055927;28;45523;-79
2022/03/16 10:50:40;;;;;;;;;39.25;33.75;;;;;14.33;63.79;101574.78;5054959;28;45491;-77
2022/03/16 10:53:06;;;;;;;;;38.00;32.75;;;;;14.35;63.41;101570.19;5056248;28;45476;-77
2022/03/16 10:55:31;;;;;;;;;34.00;31.25;;;;;14.37;63.18;101560.16;5056328;28;45307;-77
2022/03/16 10:57:59;;;;;;;;;43.25;35.75;;;;;14.52;63.05;101566.69;5056433;28;45288;-79
2022/03/16 11:00:27;;;;;;;;;39.50;34.50;;;;;14.47;62.72;101532.78;5056764;28;45409;-77
2022/03/16 11:02:54;;;;;;;;;44.50;32.75;;;;;14.62;62.47;101545.53;5056231;28;45449;-77
2022/03/16 11:05:20;;;;;;;;;38.75;33.50;;;;;14.73;61.92;101546.72;5055854;28;45931;-78
2022/03/16 11:07:48;;;;;;;;;41.75;34.25;;;;;14.77;61.87;101542.94;5056252;28;45571;-78
2022/03/16 11:10:15;;;;;;;;;33.00;31.00;;;;;14.82;62.31;101536.41;5056102;28;45246;-77
2022/03/16 11:15:25;;;;;;;;;30.75;30.25;;;;;14.90;61.54;101532.38;5055789;28;45320;-78
2022/03/16 11:17:53;;;;;;;;;45.50;34.25;;;;;14.89;61.49;101525.22;5034332;28;45434;-79
2022/03/16 11:20:20;;;;;;;;;42.50;33.25;;;;;14.96;61.58;101523.97;5052455;28;45342;-79
2022/03/16 11:26:23;;;;;;;;;42.25;35.00;;;;;15.13;61.62;101532.06;5055550;28;45360;-79
2022/03/16 11:29:05;;;;;;;;;38.75;34.75;;;;;15.20;61.23;101527.22;5055544;28;45238;-77
2022/03/16 11:31:31;;;;;;;;;43.25;33.50;;;;;15.24;61.01;101511.69;5055591;28;45364;-77
2022/03/16 11:33:59;;;;;;;;;35.50;33.50;;;;;15.24;60.87;101501.78;5033813;28;46266;-77
2022/03/16 11:36:38;;;;;;;;;39.25;34.25;;;;;15.40;61.13;101512.63;5051277;28;45263;-78
2022/03/16 11:39:15;;;;;;;;;37.25;34.50;;;;;15.47;60.54;101509.53;5055703;28;45290;-77
2022/03/16 11:41:48;;;;;;;;;36.25;31.00;;;;;15.52;60.34;101506.56;5055448;28;45469;-78
2022/03/16 11:44:26;;;;;;;;;34.50;30.00;;;;;15.58;60.36;101510.78;5055591;28;45481;-78
2022/03/16 11:46:53;;;;;;;;;37.50;34.00;;;;;15.62;60.32;101513.25;5043508;28;45500;-78
2022/03/16 11:49:29;;;;;;;;;30.25;28.75;;;;;15.65;60.25;101504.97;5055377;28;45282;-76
2022/03/16 11:52:02;;;;;;;;;35.25;31.75;;;;;15.67;59.50;101489.53;5056281;28;45365;-78
2022/03/16 11:54:48;;;;;;;;;39.75;33.75;;;;;15.73;59.72;101494.63;5054759;28;45333;-77
2022/03/16 11:57:29;;;;;;;;;37.50;33.75;;;;;15.68;59.18;101464.25;5036992;28;48137;-75
2022/03/16 11:59:59;;;;;;;;;34.50;31.25;;;;;15.88;59.52;101490.19;5054960;28;45310;-79
2022/03/16 12:02:27;;;;;;;;;37.50;32.25;;;;;15.96;58.93;101484.34;5055040;28;45286;-78
2022/03/16 12:05:01;;;;;;;;;32.75;31.00;;;;;16.07;58.68;101465.69;5055573;28;45256;-79
2022/03/16 12:07:30;;;;;;;;;33.75;30.00;;;;;16.20;58.29;101455.91;5055355;28;46427;-79
2022/03/16 12:09:55;;;;;;;;;40.75;34.00;;;;;16.41;57.66;101464.63;5055394;28;45308;-78
2022/03/16 12:15:11;;;;;;;;;40.00;29.50;;;;;16.62;57.04;101449.81;5055312;28;46029;-80
2022/03/16 12:17:37;;;;;;;;;38.50;32.75;;;;;16.62;57.02;101429.03;5055406;28;46610;-79
2022/03/16 12:20:17;;;;;;;;;39.00;32.25;;;;;16.76;56.88;101438.19;5055039;28;45258;-81
2022/03/16 12:22:48;;;;;;;;;34.00;31.50;;;;;16.72;57.01;101426.66;5055772;28;45370;-82
2022/03/16 12:25:25;;;;;;;;;40.25;32.50;;;;;16.81;57.02;101439.63;5036545;28;47427;-77
2022/03/16 12:30:55;;;;;;;;;33.75;30.00;;;;;16.84;57.04;101414.22;5055575;28;45321;-82
2022/03/16 12:33:24;;;;;;;;;40.75;32.00;;;;;16.91;57.03;101421.88;5054574;28;45370;-75
2022/03/16 12:36:03;;;;;;;;;31.75;29.25;;;;;16.91;56.71;101405.63;5054778;28;45293;-75
2022/03/16 12:38:31;;;;;;;;;29.50;28.50;;;;;16.94;56.02;101399.13;5055653;28;46148;-74
2022/03/16 12:43:48;;;;;;;;;28.75;28.00;;;;;16.94;56.28;101388.28;5056483;28;45322;-75
2022/03/16 12:46:23;;;;;;;;;35.50;29.00;;;;;16.98;55.94;101389.84;5054870;28;45304;-76
2022/03/16 12:48:54;;;;;;;;;30.00;25.00;;;;;16.95;56.02;101377.34;5054218;28;45508;-76
2022/03/16 12:51:43;;;;;;;;;30.25;26.50;;;;;17.01;55.84;101385.09;5054109;28;45362;-77
2022/03/16 12:54:09;;;;;;;;;32.25;30.75;;;;;16.96;56.09;101372.81;5054477;28;45401;-76
2022/03/16 12:56:43;;;;;;;;;44.00;32.00;;;;;17.11;55.59;101381.81;5054539;28;45399;-75
2022/03/16 12:59:11;;;;;;;;;34.50;25.75;;;;;17.18;55.30;101380.47;5054102;28;45352;-75
2022/03/16 13:01:37;;;;;;;;;28.25;25.00;;;;;17.23;55.01;101381.91;5054063;28;45339;-73
2022/03/16 13:04:07;;;;;;;;;27.25;24.00;;;;;17.28;54.69;101373.47;5053882;28;45737;-76
2022/03/16 13:06:33;;;;;;;;;28.25;21.00;;;;;17.27;54.79;101358.19;5054038;28;45495;-76
2022/03/16 13:09:06;;;;;;;;;24.25;24.25;;;;;17.37;55.01;101376.47;5054008;28;45386;-75
2022/03/16 13:11:32;;;;;;;;;27.25;25.00;;;;;17.38;54.97;101370.09;5052983;28;45393;-73
2022/03/16 13:14:02;;;;;;;;;27.75;22.00;;;;;17.39;54.92;101370.97;5054205;28;45297;-74
2022/03/16 13:16:39;;;;;;;;;25.50;22.50;;;;;17.49;55.12;101373.97;5053957;28;47088;-76
2022/03/16 13:19:07;;;;;;;;;24.75;23.75;;;;;17.50;54.66;101370.28;5053847;28;46320;-73
2022/03/16 13:21:34;;;;;;;;;23.50;22.00;;;;;17.53;55.02;101372.78;5054013;28;45583;-72
2022/03/16 13:24:12;;;;;;;;;27.75;27.00;;;;;17.54;54.43;101382.66;5053210;28;45401;-75
2022/03/16 13:26:39;;;;;;;;;28.25;28.25;;;;;17.56;54.66;101395.16;5053720;28;45403;-72
2022/03/16 13:29:08;;;;;;;;;24.50;21.50;;;;;17.52;54.70;101387.31;5053652;28;45270;-74
2022/03/16 13:31:36;;;;;;;;;25.25;22.25;;;;;17.49;55.03;101388.38;5053043;28;45541;-73
2022/03/16 13:34:03;;;;;;;;;24.25;22.00;;;;;17.44;55.16;101398.63;5053761;28;45410;-74
2022/03/16 13:36:44;;;;;;;;;25.50;23.75;;;;;17.42;55.37;101388.88;5053647;28;45303;-74
2022/03/16 13:39:20;;;;;;;;;26.00;23.00;;;;;17.35;55.59;101399.25;5053710;28;45907;-73
2022/03/16 13:42:15;;;;;;;;;25.25;23.75;;;;;17.30;55.89;101404.06;5053665;28;45389;-73
2022/03/16 13:44:48;;;;;;;;;22.50;19.75;;;;;17.22;55.85;101404.56;5035398;28;45389;-74
2022/03/16 13:47:16;;;;;;;;;24.50;24.00;;;;;17.27;55.82;101410.56;5053623;28;45405;-73
2022/03/16 13:49:44;;;;;;;;;30.75;24.25;;;;;17.27;55.25;101405.13;5053008;28;46186;-73
2022/03/16 13:52:13;;;;;;;;;19.25;19.00;;;;;17.29;55.38;101405.03;5053729;28;45294;-74
2022/03/16 13:54:41;;;;;;;;;26.00;23.25;;;;;17.32;55.57;101405.72;5053598;28;45480;-75
2022/03/16 13:57:12;;;;;;;;;21.25;18.75;;;;;17.38;54.73;101410.75;5053463;28;46205;-73
2022/03/16 13:59:40;;;;;;;;;24.00;21.75;;;;;17.37;54.45;101410.84;5053589;28;45256;-74
2022/03/16 14:02:09;;;;;;;;;26.50;21.00;;;;;17.42;54.63;101407.84;5053238;28;45452;-74
2022/03/16 14:04:37;;;;;;;;;20.75;18.75;;;;;17.43;54.31;101410.47;5053704;28;45286;-74
2022/03/16 14:07:17;;;;;;;;;21.25;16.75;;;;;17.39;53.57;101415.22;5053151;28;45515;-74
2022/03/16 14:09:44;;;;;;;;;20.00;16.00;;;;;17.42;52.89;101427.72;5053165;28;46677;-75
2022/03/16 14:12:13;;;;;;;;;16.25;16.25;;;;;17.27;52.74;101409.69;5035307;28;45242;-74
2022/03/16 14:14:39;;;;;;;;;16.00;14.25;;;;;17.38;52.84;101428.84;5053662;28;45332;-74
2022/03/16 14:17:05;;;;;;;;;17.75;14.50;;;;;17.35;52.18;101421.78;5053107;28;45777;-73
2022/03/16 14:19:36;;;;;;;;;17.25;13.50;;;;;17.30;52.25;101418.50;5053032;28;46356;-73
2022/03/16 14:22:02;;;;;;;;;16.00;16.00;;;;;17.23;52.43;101419.84;5053396;28;45306;-74
2022/03/16 14:24:27;;;;;;;;;13.00;10.00;;;;;17.21;52.01;101429.91;5035279;28;45318;-73
2022/03/16 14:26:54;;;;;;;;;18.75;15.75;;;;;17.09;52.75;101425.28;5052937;28;45459;-74
2022/03/16 14:29:19;;;;;;;;;20.00;15.25;;;;;17.06;53.23;101414.63;5056805;28;46093;-73
2022/03/16 14:31:45;;;;;;;;;23.25;19.25;;;;;17.07;53.58;101415.50;5056217;28;45406;-74
2022/03/16 14:34:12;;;;;;;;;17.50;16.50;;;;;17.06;53.50;101411.91;5056507;28;45470;-73
2022/03/16 14:36:37;;;;;;;;;20.50;18.00;;;;;17.04;54.04;101397.59;5037960;28;45735;-73
2022/03/16 14:39:03;;;;;;;;;21.25;18.25;;;;;17.05;54.01;101398.47;5056546;28;45653;-73
2022/03/16 14:41:28;;;;;;;;;21.50;18.00;;;;;17.05;54.01;101417.41;5056550;28;45365;-74
2022/03/16 14:43:54;;;;;;;;;24.75;20.25;;;;;17.03;54.30;101417.50;5056555;28;45177;-74
2022/03/16 14:46:20;;;;;;;;;20.75;19.25;;;;;16.97;54.35;101421.47;5055974;28;45472;-73
2022/03/16 14:48:45;;;;;;;;;22.25;17.50;;;;;16.88;54.59;101416.63;5056885;28;46469;-73
2022/03/16 14:51:11;;;;;;;;;24.25;21.00;;;;;16.84;54.66;101420.47;5055983;28;45184;-74
2022/03/16 14:53:36;;;;;;;;;23.00;19.75;;;;;16.78;55.07;101422.69;5056549;28;45421;-73
2022/03/16 14:56:02;;;;;;;;;20.75;17.00;;;;;16.71;55.47;101414.06;5055974;28;45428;-74
2022/03/16 14:58:28;;;;;;;;;25.00;22.00;;;;;16.67;55.71;101419.78;5056048;28;45310;-74
2022/03/16 15:00:53;;;;;;;;;21.00;17.50;;;;;16.58;55.78;101416.63;5055953;28;45267;-74
2022/03/16 15:03:19;;;;;;;;;24.00;19.50;;;;;16.58;56.30;101415.75;5056225;28;45347;-73
2022/03/16 15:05:45;;;;;;;;;28.25;19.25;;;;;16.53;56.23;101407.03;5055784;28;45974;-73
2022/03/16 15:08:13;;;;;;;;;20.50;20.00;;;;;16.44;56.58;101394.03;5034367;28;47993;-73
2022/03/16 15:10:39;;;;;;;;;20.25;20.25;;;;;16.51;56.34;101400.81;5053054;28;45256;-73
2022/03/16 15:13:05;;;;;;;;;16.50;16.50;;;;;16.50;56.25;101402.66;5056160;28;45454;-73
2022/03/16 15:15:31;;;;;;;;;19.75;17.75;;;;;16.40;56.01;101395.22;5034317;28;45455;-73
2022/03/16 15:17:56;;;;;;;;;19.75;16.25;;;;;16.34;56.63;101391.00;5045860;28;46037;-74
2022/03/16 15:20:21;;;;;;;;;20.25;16.25;;;;;16.23;56.96;101380.84;5055420;28;45318;-73
2022/03/16 15:22:47;;;;;;;;;22.25;20.25;;;;;16.24;56.81;101389.84;5055837;28;45311;-73
2022/03/16 15:25:13;;;;;;;;;23.00;20.75;;;;;16.16;57.06;101379.44;5055482;28;45196;-73
2022/03/16 15:27:38;;;;;;;;;21.00;18.75;;;;;16.17;56.87;101386.59;5055408;28;45971;-72
2022/03/16 15:30:05;;;;;;;;;20.75;16.50;;;;;16.13;56.97;101387.75;5055287;28;45510;-74
2022/03/16 15:32:31;;;;;;;;;21.25;19.50;;;;;16.09;57.50;101378.06;5033721;28;45309;-73
2022/03/16 15:34:56;;;;;;;;;17.75;15.75;;;;;16.07;57.27;101374.59;5051021;28;45536;-73
2022/03/16 15:37:25;;;;;;;;;22.00;19.50;;;;;15.94;57.34;101348.34;5057308;28;45780;-79
2022/03/16 15:42:43;;;;;;;;;17.75;17.75;;;;;16.07;58.00;101360.22;5055989;28;45251;-77
2022/03/16 15:45:10;;;;;;;;;19.25;17.00;;;;;16.06;57.97;101350.34;5055801;28;45413;-79
2022/03/16 15:47:35;;;;;;;;;20.75;19.25;;;;;16.11;58.06;101364.47;5055393;28;45450;-80
2022/03/16 15:50:02;;;;;;;;;20.00;18.50;;;;;16.12;58.27;101355.38;5055416;28;45224;-78
2022/03/16 15:52:27;;;;;;;;;23.50;19.00;;;;;16.11;58.58;101356.34;5055325;28;45465;-77
2022/03/16 15:54:55;;;;;;;;;21.00;20.25;;;;;16.03;58.87;101353.22;5055537;28;45232;-75
2022/03/16 15:57:21;;;;;;;;;24.50;23.75;;;;;16.01;58.60;101342.47;5055100;28;45703;-77
2022/03/16 15:59:46;;;;;;;;;24.25;23.00;;;;;16.01;59.07;101339.78;5055713;28;45385;-77
2022/03/16 16:02:11;;;;;;;;;24.75;22.50;;;;;15.88;59.08;101334.25;5055346;28;45303;-76
2022/03/16 16:04:37;;;;;;;;;25.00;23.75;;;;;15.84;59.43;101332.66;5054954;28;45328;-78
2022/03/16 16:07:03;;;;;;;;;24.25;23.50;;;;;15.85;59.69;101334.41;5054980;28;45396;-73
2022/03/16 16:09:29;;;;;;;;;30.00;22.75;;;;;15.84;59.86;101334.50;5055394;28;45266;-73
2022/03/16 16:11:56;;;;;;;;;19.00;17.50;;;;;15.77;60.11;101309.66;5056125;28;45450;-76
2022/03/16 16:14:23;;;;;;;;;22.50;21.75;;;;;15.83;60.14;101324.63;5055920;28;45278;-74
2022/03/16 16:16:49;;;;;;;;;19.50;19.50;;;;;15.83;60.47;101319.22;5055110;28;46308;-75
2022/03/16 16:19:15;;;;;;;;;23.00;20.00;;;;;15.80;60.55;101324.81;5054546;28;45466;-75
2022/03/16 16:21:41;;;;;;;;;21.25;20.50;;;;;15.82;60.11;101328.31;5052662;28;45582;-74
2022/03/16 16:24:07;;;;;;;;;21.00;18.25;;;;;15.80;60.36;101328.41;5054827;28;45405;-75
2022/03/16 16:26:35;;;;;;;;;20.75;19.25;;;;;15.79;60.41;101318.53;5054545;28;45916;-75
2022/03/16 16:29:03;;;;;;;;;23.25;17.75;;;;;15.69;60.55;101317.34;5054760;28;45377;-75
2022/03/16 16:31:30;;;;;;;;;18.50;16.50;;;;;15.77;60.32;101330.41;5053509;28;45291;-75
2022/03/16 16:33:55;;;;;;;;;21.00;16.50;;;;;15.74;60.50;101323.34;5044153;28;45580;-76
2022/03/16 16:36:21;;;;;;;;;25.50;18.00;;;;;15.75;60.44;101326.91;5054298;28;45724;-75
2022/03/16 16:38:47;;;;;;;;;20.50;19.00;;;;;15.72;60.35;101337.91;5027897;28;45363;-75
2022/03/16 16:41:12;;;;;;;;;26.00;20.25;;;;;15.66;60.41;101343.66;5051281;28;45396;-74
2022/03/16 16:43:38;;;;;;;;;25.00;19.00;;;;;15.57;60.81;101330.69;5054681;28;45398;-75
2022/03/16 16:46:10;;;;;;;;;21.00;17.25;;;;;15.59;60.95;101342.28;5053986;28;45443;-74
2022/03/16 16:48:35;;;;;;;;;16.50;15.00;;;;;15.59;61.00;101339.56;5053845;28;45571;-75
2022/03/16 16:51:02;;;;;;;;;22.25;17.50;;;;;15.57;60.69;101333.41;5049287;28;45474;-74
2022/03/16 16:53:28;;;;;;;;;21.25;16.50;;;;;15.56;60.87;101331.66;5026294;28;46281;-75
2022/03/16 16:55:54;;;;;;;;;25.75;18.25;;;;;15.56;60.77;101339.75;5053772;28;45438;-75
2022/03/16 16:58:21;;;;;;;;;21.25;19.75;;;;;15.57;61.22;101345.06;5054201;28;45375;-74
2022/03/16 17:00:48;;;;;;;;;24.00;20.25;;;;;15.36;60.74;101309.31;5054339;28;45650;-75
2022/03/16 17:03:15;;;;;;;;;24.75;20.50;;;;;15.59;60.74;101364.75;5054465;28;45240;-75
2022/03/16 17:05:43;;;;;;;;;22.75;18.00;;;;;15.50;61.01;101374.22;5053870;28;45413;-76
2022/03/16 17:08:10;;;;;;;;;15.50;14.50;;;;;15.47;61.11;101382.53;5054099;28;45578;-76
2022/03/16 17:10:40;;;;;;;;;18.00;17.25;;;;;15.47;61.16;101379.84;5054127;28;45394;-74